createdAt,value
2022-09-12T00:01:36.243Z,100.00
2022-09-12T00:04:03.063Z,100.00
2022-09-12T00:06:34.955Z,100.00
2022-09-12T00:09:05.115Z,100.00
2022-09-12T00:11:31.906Z,100.00
2022-09-12T00:13:59.823Z,100.00
2022-09-12T00:16:28.194Z,100.00
2022-09-12T00:18:54.890Z,100.00
2022-09-12T00:21:22.392Z,100.00
2022-09-12T00:23:51.165Z,100.00
2022-09-12T00:26:18.628Z,100.00
2022-09-12T00:28:45.618Z,100.00
2022-09-12T00:31:26.622Z,100.00
2022-09-12T00:33:55.933Z,100.00
2022-09-12T00:36:24.359Z,100.00
2022-09-12T00:38:52.029Z,100.00
2022-09-12T00:41:27.526Z,100.00
2022-09-12T00:44:03.355Z,100.00
2022-09-12T00:46:50.898Z,100.00
2022-09-12T00:49:23.646Z,100.00
2022-09-12T00:51:58.493Z,100.00
2022-09-12T00:54:28.690Z,100.00
2022-09-12T00:56:58.025Z,100.00
2022-09-12T00:59:30.567Z,100.00
2022-09-12T01:01:57.480Z,100.00
2022-09-12T01:04:26.012Z,100.00
2022-09-12T01:06:53.251Z,100.00
2022-09-12T01:09:22.175Z,100.00
2022-09-12T01:11:49.322Z,100.00
2022-09-12T01:14:17.394Z,100.00
2022-09-12T01:16:45.341Z,100.00
2022-09-12T01:19:49.466Z,100.00
2022-09-12T01:22:41.339Z,100.00
2022-09-12T01:25:28.805Z,100.00
2022-09-12T01:28:14.395Z,100.00
2022-09-12T01:31:00.946Z,100.00
2022-09-12T01:33:34.418Z,100.00
2022-09-12T01:36:17.525Z,100.00
2022-09-12T01:38:48.498Z,100.00
2022-09-12T01:41:21.042Z,100.00
2022-09-12T01:44:33.623Z,100.00
2022-09-12T01:47:08.605Z,100.00
2022-09-12T01:50:12.804Z,100.00
2022-09-12T01:52:48.356Z,100.00
2022-09-12T01:55:25.426Z,100.00
2022-09-12T01:58:00.568Z,100.00
2022-09-12T02:00:27.425Z,100.00
2022-09-12T02:03:03.468Z,100.00
2022-09-12T02:05:33.724Z,100.00
2022-09-12T02:08:09.484Z,100.00
2022-09-12T02:10:51.127Z,100.00
2022-09-12T02:13:33.641Z,100.00
2022-09-12T02:16:24.287Z,100.00
2022-09-12T02:18:54.362Z,100.00
2022-09-12T02:21:23.242Z,100.00
2022-09-12T02:23:55.413Z,100.00
2022-09-12T02:26:30.091Z,100.00
2022-09-12T02:28:57.319Z,100.00
2022-09-12T02:31:36.535Z,100.00
2022-09-12T02:34:39.923Z,100.00
2022-09-12T02:37:28.142Z,100.00
2022-09-12T02:39:56.024Z,100.00
2022-09-12T02:42:23.270Z,100.00
2022-09-12T02:44:51.675Z,100.00
2022-09-12T02:47:23.239Z,100.00
2022-09-12T02:49:50.230Z,100.00
2022-09-12T02:52:17.014Z,100.00
2022-09-12T02:54:44.276Z,100.00
2022-09-12T02:57:22.559Z,100.00
2022-09-12T02:59:50.736Z,100.00
2022-09-12T05:19:58.375Z,100.00
2022-09-12T05:22:25.279Z,100.00
2022-09-12T05:24:51.959Z,100.00
2022-09-12T05:27:18.790Z,100.00
2022-09-12T05:29:45.575Z,100.00
2022-09-12T05:32:12.627Z,100.00
2022-09-12T05:34:40.311Z,100.00
2022-09-12T05:37:06.977Z,100.00
2022-09-12T05:39:33.859Z,100.00
2022-09-12T05:42:00.566Z,100.00
2022-09-12T05:44:28.239Z,100.00
2022-09-12T05:46:54.828Z,100.00
2022-09-12T05:49:21.700Z,100.00
2022-09-12T05:51:48.402Z,100.00
2022-09-12T05:54:18.109Z,100.00
2022-09-12T05:56:45.267Z,100.00
2022-09-12T05:59:14.782Z,100.00
2022-09-12T06:01:41.954Z,100.00
2022-09-12T06:04:08.999Z,100.00
2022-09-12T06:06:38.883Z,100.00
2022-09-12T06:09:06.405Z,100.00
2022-09-12T06:11:37.406Z,100.00
2022-09-12T06:14:04.588Z,100.00
2022-09-12T06:16:35.082Z,100.00
2022-09-12T06:19:07.209Z,100.00
2022-09-12T06:21:35.395Z,100.00
2022-09-12T06:24:02.496Z,100.00
2022-09-12T06:26:29.627Z,100.00
2022-09-12T06:28:57.889Z,100.00
2022-09-12T06:31:35.941Z,100.00
2022-09-12T06:34:05.735Z,100.00
2022-09-12T06:36:34.933Z,100.00
2022-09-12T06:39:13.135Z,100.00
2022-09-12T06:41:43.766Z,100.00
2022-09-12T06:44:16.253Z,100.00
2022-09-12T06:46:43.353Z,100.00
2022-09-12T06:49:11.029Z,100.00
2022-09-12T06:51:37.886Z,100.00
2022-09-12T06:54:05.399Z,100.00
2022-09-12T06:56:32.163Z,100.00
2022-09-12T06:58:59.506Z,100.00
2022-09-12T07:01:28.349Z,100.00
2022-09-12T07:03:57.249Z,100.00
2022-09-12T07:06:31.645Z,94.80
2022-09-12T07:08:59.550Z,93.46
2022-09-12T07:11:28.278Z,88.73
2022-09-12T07:13:56.511Z,83.03
2022-09-12T07:16:23.810Z,79.58
2022-09-12T07:18:51.972Z,79.79
2022-09-12T07:21:18.924Z,76.77
2022-09-12T07:23:45.756Z,74.08
2022-09-12T07:26:13.975Z,74.40
2022-09-12T07:28:40.859Z,73.38
2022-09-12T07:31:12.743Z,74.57
2022-09-12T07:33:40.378Z,73.47
2022-09-12T07:36:10.636Z,73.07
2022-09-12T07:38:38.419Z,72.32
2022-09-12T07:41:12.003Z,70.80
2022-09-12T07:43:38.666Z,71.96
2022-09-12T07:46:05.639Z,71.71
2022-09-12T07:48:32.348Z,73.44
2022-09-12T07:51:00.893Z,73.08
2022-09-12T07:53:32.037Z,72.69
2022-09-12T07:55:58.843Z,74.14
2022-09-12T07:58:26.072Z,76.22
2022-09-12T08:00:52.848Z,76.65
2022-09-12T08:03:19.689Z,79.17
2022-09-12T08:05:46.628Z,81.07
2022-09-12T08:08:13.299Z,83.26
2022-09-12T08:10:40.019Z,85.36
2022-09-12T08:13:09.405Z,84.00
2022-09-12T08:15:37.455Z,87.05
2022-09-12T08:18:04.206Z,85.40
2022-09-12T08:20:31.037Z,85.26
2022-09-12T08:22:57.670Z,80.89
2022-09-12T08:25:24.312Z,80.78
2022-09-12T08:27:50.939Z,77.79
2022-09-12T08:30:17.661Z,75.33
2022-09-12T08:32:44.269Z,73.42
2022-09-12T08:35:10.950Z,73.14
2022-09-12T08:37:37.587Z,72.86
2022-09-12T08:40:08.469Z,71.32
2022-09-12T08:43:21.582Z,71.16
2022-09-12T08:45:54.809Z,71.19
2022-09-12T08:48:21.540Z,71.36
2022-09-12T08:50:49.910Z,70.77
2022-09-12T08:53:21.729Z,66.38
2022-09-12T08:56:01.168Z,66.48
2022-09-12T08:58:29.320Z,63.93
2022-09-12T09:01:07.227Z,63.19
2022-09-12T09:03:52.315Z,62.03
2022-09-12T09:06:37.551Z,65.19
2022-09-12T09:09:12.740Z,65.16
2022-09-12T09:11:58.165Z,62.41
2022-09-12T09:14:50.322Z,63.95
2022-09-12T09:17:21.859Z,63.19
2022-09-12T09:19:53.592Z,66.04
2022-09-12T09:22:29.664Z,64.50
2022-09-12T09:25:00.790Z,63.10
2022-09-12T09:27:41.545Z,62.31
2022-09-12T09:30:17.467Z,62.67
2022-09-12T09:32:47.873Z,61.23
2022-09-12T09:35:57.985Z,62.61
2022-09-12T09:38:34.936Z,62.17
2022-09-12T09:41:19.247Z,62.94
2022-09-12T09:43:46.300Z,60.44
2022-09-12T09:46:14.277Z,60.02
2022-09-12T09:48:42.746Z,60.23
2022-09-12T09:51:10.534Z,61.06
2022-09-12T09:53:42.439Z,63.01
2022-09-12T09:56:13.803Z,58.48
2022-09-12T09:58:41.070Z,57.32
2022-09-12T10:01:16.930Z,56.58
2022-09-12T10:03:56.475Z,56.07
2022-09-12T10:06:25.686Z,54.80
2022-09-12T10:09:05.394Z,54.07
2022-09-12T10:11:32.952Z,55.36
2022-09-12T10:14:01.458Z,55.31
2022-09-12T10:16:33.379Z,53.44
2022-09-12T10:19:02.342Z,53.68
2022-09-12T10:21:48.188Z,54.11
2022-09-12T10:24:37.065Z,54.30
2022-09-12T10:27:12.735Z,53.08
2022-09-12T10:30:00.768Z,54.50
2022-09-12T10:32:38.662Z,54.35
2022-09-12T10:35:17.729Z,55.73
2022-09-12T10:37:57.129Z,55.56
2022-09-12T10:40:26.310Z,54.83
2022-09-12T10:42:57.147Z,56.22
2022-09-12T10:45:30.398Z,55.67
2022-09-12T10:48:00.575Z,54.38
2022-09-12T10:50:41.256Z,54.14
2022-09-12T10:53:18.974Z,53.83
2022-09-12T10:56:22.657Z,52.87
2022-09-12T10:59:03.901Z,52.22
2022-09-12T11:01:30.512Z,52.20
2022-09-12T11:04:03.434Z,50.58
2022-09-12T11:06:55.744Z,51.61
2022-09-12T11:09:45.497Z,51.86
2022-09-12T11:12:35.046Z,51.40
2022-09-12T11:15:11.793Z,51.66
2022-09-12T11:17:48.292Z,50.56
2022-09-12T11:20:29.875Z,50.80
2022-09-12T11:23:43.992Z,51.17
2022-09-12T11:26:35.094Z,49.59
2022-09-12T11:29:04.714Z,48.52
2022-09-12T11:31:43.853Z,49.47
2022-09-12T11:34:11.628Z,49.87
2022-09-12T11:37:10.426Z,49.47
2022-09-12T11:39:43.839Z,50.07
2022-09-12T11:42:16.990Z,50.43
2022-09-12T11:44:50.084Z,52.17
2022-09-12T11:47:20.824Z,50.21
2022-09-12T11:49:51.203Z,49.55
2022-09-12T11:52:23.843Z,49.20
2022-09-12T11:55:11.174Z,48.47
2022-09-12T11:57:48.069Z,48.89
2022-09-12T12:00:20.268Z,47.52
2022-09-12T12:03:13.215Z,47.76
2022-09-12T12:05:44.770Z,49.08
2022-09-12T12:08:12.309Z,46.72
2022-09-12T12:10:42.071Z,46.59
2022-09-12T12:13:16.819Z,46.13
2022-09-12T12:16:00.214Z,45.60
2022-09-12T12:18:28.454Z,45.27
2022-09-12T12:20:56.037Z,46.14
2022-09-12T12:23:24.743Z,46.38
2022-09-12T12:25:53.993Z,45.56
2022-09-12T12:28:38.607Z,44.78
2022-09-12T12:31:05.697Z,45.14
2022-09-12T12:33:32.297Z,45.74
2022-09-12T12:35:59.491Z,47.22
2022-09-12T12:38:33.425Z,47.53
2022-09-12T12:41:20.118Z,46.10
2022-09-12T12:43:54.755Z,45.48
2022-09-12T12:46:23.273Z,45.89
2022-09-12T12:49:01.758Z,46.71
2022-09-12T12:51:38.741Z,45.08
2022-09-12T12:54:33.889Z,43.88
2022-09-12T12:57:23.345Z,44.50
2022-09-12T12:59:54.073Z,43.90
2022-09-12T13:02:33.133Z,43.83
2022-09-12T13:05:02.451Z,43.49
2022-09-12T13:07:32.973Z,43.68
2022-09-12T13:10:00.719Z,43.69
2022-09-12T13:12:34.083Z,42.11
2022-09-12T13:15:07.063Z,42.16
2022-09-12T13:17:44.382Z,42.99
2022-09-12T13:20:29.762Z,42.24
2022-09-12T13:22:57.739Z,41.53
2022-09-12T13:25:33.958Z,41.44
2022-09-12T13:28:06.155Z,40.24
2022-09-12T13:30:35.597Z,40.57
2022-09-12T13:33:11.449Z,40.57
2022-09-12T13:36:15.554Z,41.09
2022-09-12T13:38:57.249Z,40.01
2022-09-12T13:41:46.105Z,39.19
2022-09-12T13:44:15.774Z,37.39
2022-09-12T13:46:42.695Z,37.59
2022-09-12T13:49:41.987Z,39.00
2022-09-12T13:52:16.449Z,39.85
2022-09-12T13:54:44.889Z,38.41
2022-09-12T13:57:27.473Z,38.20
2022-09-12T13:59:56.073Z,38.22
2022-09-12T14:02:24.967Z,38.19
2022-09-12T14:05:11.537Z,39.42
2022-09-12T14:07:51.159Z,39.39
2022-09-12T14:10:22.892Z,39.90
2022-09-12T14:12:50.864Z,41.57
2022-09-12T14:15:22.455Z,41.16
2022-09-12T14:17:54.544Z,41.88
2022-09-12T14:20:23.365Z,41.95
2022-09-12T14:22:53.193Z,41.84
2022-09-12T14:25:22.511Z,41.97
2022-09-12T14:27:53.438Z,42.80
2022-09-12T14:30:35.345Z,43.72
2022-09-12T14:33:11.157Z,44.36
2022-09-12T14:35:43.164Z,45.16
2022-09-12T14:38:15.904Z,45.10
2022-09-12T14:40:45.294Z,45.20
2022-09-12T14:43:20.101Z,44.87
2022-09-12T14:45:53.439Z,46.45
2022-09-12T14:50:52.437Z,46.52
2022-09-12T14:53:19.091Z,45.75
2022-09-12T14:55:55.669Z,45.42
2022-09-12T14:58:22.591Z,44.96
2022-09-12T15:01:01.972Z,45.67
2022-09-12T15:03:36.223Z,46.21
2022-09-12T15:06:05.182Z,47.71
2022-09-12T15:08:32.360Z,49.77
2022-09-12T15:11:00.031Z,53.17
2022-09-12T15:13:28.516Z,55.00
2022-09-12T15:15:57.107Z,56.21
2022-09-12T15:18:26.611Z,55.66
2022-09-12T15:21:03.843Z,55.66
2022-09-12T15:23:50.953Z,56.06
2022-09-12T15:26:22.747Z,56.63
2022-09-12T15:28:50.234Z,56.06
2022-09-12T15:31:27.416Z,55.90
2022-09-12T15:33:55.195Z,56.12
2022-09-12T15:36:23.443Z,55.86
2022-09-12T15:38:50.956Z,56.60
2022-09-12T15:41:19.817Z,56.95
2022-09-12T15:43:46.858Z,57.44
2022-09-12T15:46:14.840Z,57.62
2022-09-12T15:48:41.875Z,58.82
2022-09-12T15:51:19.379Z,58.04
2022-09-12T15:53:46.908Z,58.58
2022-09-12T15:56:16.079Z,58.38
2022-09-12T15:58:57.235Z,59.81
2022-09-12T16:01:24.711Z,60.46
2022-09-12T16:03:51.407Z,59.47
2022-09-12T16:06:18.047Z,59.54
2022-09-12T16:08:44.807Z,60.45
2022-09-12T16:11:17.849Z,60.29
2022-09-12T16:13:44.440Z,61.24
2022-09-12T16:16:11.437Z,60.92
2022-09-12T16:18:41.307Z,61.77
2022-09-12T16:21:11.452Z,63.25
2022-09-12T16:23:45.898Z,63.42
2022-09-12T16:26:12.663Z,63.13
2022-09-12T16:28:39.380Z,64.12
2022-09-12T16:31:07.940Z,64.88
2022-09-12T16:33:35.148Z,62.90
2022-09-12T16:36:10.042Z,63.52
2022-09-12T16:38:44.768Z,64.05
2022-09-12T16:41:11.716Z,66.69
2022-09-12T16:43:38.810Z,67.89
2022-09-12T16:46:08.009Z,67.99
2022-09-12T16:48:34.961Z,67.21
2022-09-12T16:51:03.870Z,68.46
2022-09-12T16:53:35.230Z,69.82
2022-09-12T16:56:02.081Z,69.65
2022-09-12T16:58:32.849Z,70.23
2022-09-12T17:01:17.446Z,69.29
2022-09-12T17:03:44.294Z,69.58
2022-09-12T17:06:13.188Z,68.62
2022-09-12T17:08:42.955Z,67.48
2022-09-12T17:11:15.229Z,67.53
2022-09-12T17:14:03.378Z,67.58
2022-09-12T17:16:29.259Z,67.80
2022-09-12T17:18:55.958Z,68.58
2022-09-12T17:21:25.389Z,68.50
2022-09-12T17:23:52.239Z,68.42
2022-09-12T17:26:18.900Z,68.59
2022-09-12T17:28:45.608Z,70.94
2022-09-12T17:31:13.502Z,72.34
2022-09-12T17:33:40.626Z,72.23
2022-09-12T17:36:11.192Z,74.13
2022-09-12T17:38:39.785Z,73.62
2022-09-12T17:41:17.994Z,76.15
2022-09-12T17:43:46.531Z,77.71
2022-09-12T17:46:13.585Z,81.79
2022-09-12T17:48:40.427Z,83.55
2022-09-12T17:51:13.474Z,84.86
2022-09-12T17:53:41.539Z,87.53
2022-09-12T17:56:08.820Z,90.34
2022-09-12T17:58:35.653Z,93.95
2022-09-12T18:01:22.545Z,96.12
2022-09-12T18:03:49.439Z,98.26
2022-09-12T18:06:16.157Z,100.00
2022-09-12T18:08:42.792Z,100.00
2022-09-12T18:11:09.409Z,100.00
2022-09-12T18:13:36.139Z,100.00
2022-09-12T18:16:10.955Z,100.00
2022-09-12T18:18:37.970Z,100.00
2022-09-12T18:21:06.150Z,100.00
2022-09-12T18:23:33.292Z,100.00
2022-09-12T18:26:01.700Z,100.00
2022-09-12T18:28:28.486Z,100.00
2022-09-12T18:30:55.247Z,100.00
2022-09-12T18:33:24.057Z,100.00
2022-09-12T18:35:51.262Z,100.00
2022-09-12T18:38:18.122Z,100.00
2022-09-12T18:40:44.766Z,100.00
2022-09-12T18:43:11.389Z,100.00
2022-09-12T18:45:38.023Z,100.00
2022-09-12T18:48:06.170Z,100.00
2022-09-12T18:50:33.276Z,100.00
2022-09-12T18:53:00.121Z,100.00
2022-09-12T18:55:27.143Z,100.00
2022-09-12T18:57:55.377Z,100.00
2022-09-12T19:00:21.996Z,100.00
2022-09-12T19:02:48.635Z,100.00
2022-09-12T19:05:15.954Z,100.00
2022-09-12T19:07:42.590Z,100.00
2022-09-12T19:10:09.247Z,100.00
2022-09-12T19:12:35.983Z,100.00
2022-09-12T19:15:03.837Z,100.00
2022-09-12T19:17:30.500Z,100.00
2022-09-12T19:19:57.111Z,100.00
2022-09-12T19:22:23.758Z,100.00
2022-09-12T19:24:50.350Z,100.00
2022-09-12T19:27:16.941Z,100.00
2022-09-12T19:29:43.679Z,100.00
2022-09-12T19:32:10.358Z,100.00
2022-09-12T19:34:36.967Z,100.00
2022-09-12T19:37:04.155Z,100.00
2022-09-12T19:39:31.411Z,100.00
2022-09-12T19:41:58.010Z,100.00
2022-09-12T19:44:27.083Z,100.00
2022-09-12T19:46:53.781Z,100.00
2022-09-12T19:49:20.415Z,100.00
2022-09-12T19:51:47.163Z,100.00
2022-09-12T19:54:13.831Z,100.00
2022-09-12T19:56:40.490Z,100.00
2022-09-12T19:59:07.226Z,100.00
2022-09-12T20:01:37.052Z,100.00
2022-09-12T20:04:04.543Z,100.00
2022-09-12T20:06:31.221Z,100.00
2022-09-12T20:08:58.139Z,100.00
2022-09-12T20:11:25.633Z,100.00
2022-09-12T20:13:52.675Z,100.00
2022-09-12T20:16:25.580Z,100.00
2022-09-12T20:19:00.730Z,100.00
2022-09-12T20:21:34.085Z,100.00
2022-09-12T20:24:15.862Z,100.00
2022-09-12T20:26:42.879Z,100.00
2022-09-12T20:29:10.219Z,100.00
2022-09-12T20:31:38.552Z,100.00
2022-09-12T20:34:05.697Z,100.00
2022-09-12T20:36:33.215Z,100.00
2022-09-12T20:39:01.466Z,100.00
2022-09-12T20:41:30.384Z,100.00
2022-09-12T20:43:57.289Z,100.00
2022-09-12T20:46:25.534Z,100.00
2022-09-12T20:48:52.576Z,100.00
2022-09-12T20:51:20.472Z,100.00
2022-09-12T20:53:47.980Z,100.00
2022-09-12T20:56:15.166Z,100.00
2022-09-12T20:58:44.325Z,100.00
2022-09-12T21:01:12.170Z,100.00
2022-09-12T21:03:39.929Z,100.00
2022-09-12T21:06:08.136Z,100.00
2022-09-12T21:08:35.843Z,100.00
2022-09-12T21:11:02.980Z,100.00
2022-09-12T21:13:29.687Z,100.00
2022-09-12T21:24:39.002Z,100.00
2022-09-12T21:30:05.690Z,100.00
2022-09-12T21:35:30.006Z,100.00
2022-09-12T21:43:50.193Z,100.00
2022-09-12T21:49:20.240Z,100.00
2022-09-12T21:51:47.072Z,100.00
2022-09-12T22:20:48.130Z,100.00
2022-09-12T22:29:23.960Z,100.00
2022-09-12T22:31:51.209Z,100.00
2022-09-12T22:43:07.771Z,100.00
2022-09-12T22:45:34.430Z,100.00
2022-09-12T22:48:01.663Z,100.00
2022-09-12T22:53:24.269Z,100.00
2022-09-12T22:55:51.015Z,100.00
2022-09-12T23:01:17.669Z,100.00
